< < Back
Terminal Aerodrome Forecast


Current Version              Previous Versions:   1  2  3  4  5  6  7  8  9  

Terminal Aerodrome Forecast

392
FTUS42 KGSP 291734
TAFAND
TAF
KAND 291734Z 2918/3018 21006KT P6SM SCT250
     FM300200 00000KT P6SM BKN250
     FM301500 08006KT P6SM BKN200
     FM301700 16007KT P6SM BKN200=

Latest METAR

505
SAUS70 KWBC 301100 RRC
MTRAND
METAR KAND 301056Z AUTO 04004KT 10SM CLR 17/13 A2997 RMK AO2 SLP141
T01670133


USA.gov is the U.S. government's official web portal to all federal, state and local government web resources and services.